Time;durP1;ratioP1;P1;durP2;ratioP2;P2;SDS_P1;SDS_P2;PMS_P1;PMS_P2;Temp;Humidity;BMP_temperature;BMP_pressure;BME280_temperature;BME280_humidity;BME280_pressure;Samples;Min_cycle;Max_cycle;Signal;HPM_P1;HPM_P2
2023/06/17 00:00:25;;;;;;;9.00;5.18;;;;;;;;;;5074081;28;20277;-64
2023/06/17 00:02:51;;;;;;;9.68;6.68;;;;;;;;;;5073800;28;20027;-64
2023/06/17 00:05:16;;;;;;;9.43;5.43;;;;;;;;;;5090886;28;20032;-63
2023/06/17 00:07:44;;;;;;;8.90;5.82;;;;;;;;;;5088899;28;20257;-63
2023/06/17 00:10:11;;;;;;;9.77;5.60;;;;;;;;;;5089538;28;20027;-64
2023/06/17 00:12:37;;;;;;;9.75;5.97;;;;;;;;;;5087485;28;20036;-63
2023/06/17 00:15:04;;;;;;;11.63;5.63;;;;;;;;;;5091304;28;20812;-64
2023/06/17 00:17:32;;;;;;;14.48;5.75;;;;;;;;;;5089109;28;20069;-63
2023/06/17 00:19:58;;;;;;;11.80;5.78;;;;;;;;;;5088860;28;20081;-63
2023/06/17 00:22:25;;;;;;;11.52;5.88;;;;;;;;;;5090193;28;20020;-64
2023/06/17 00:24:50;;;;;;;11.35;6.22;;;;;;;;;;5089078;27;20047;-64
2023/06/17 00:27:18;;;;;;;8.85;5.80;;;;;;;;;;5073298;28;20019;-62
2023/06/17 00:29:45;;;;;;;10.15;5.95;;;;;;;;;;5092488;27;20047;-64
2023/06/17 00:32:10;;;;;;;9.05;5.95;;;;;;;;;;5093533;28;20022;-63
2023/06/17 00:34:35;;;;;;;8.87;5.67;;;;;;;;;;5072122;28;20028;-63
2023/06/17 00:37:01;;;;;;;10.67;6.20;;;;;;;;;;5071525;28;20036;-63
2023/06/17 00:39:29;;;;;;;8.43;5.50;;;;;;;;;;5072336;28;20277;-63
2023/06/17 00:41:55;;;;;;;9.65;5.80;;;;;;;;;;5090803;28;20019;-63
2023/06/17 00:44:23;;;;;;;8.73;5.75;;;;;;;;;;5069258;28;20516;-63
2023/06/17 00:46:52;;;;;;;11.27;5.78;;;;;;;;;;5091527;28;20179;-63
2023/06/17 00:49:18;;;;;;;9.98;6.28;;;;;;;;;;5086886;27;20034;-64
2023/06/17 00:51:44;;;;;;;8.88;5.95;;;;;;;;;;5096226;28;20296;-64
2023/06/17 00:54:12;;;;;;;10.45;5.85;;;;;;;;;;5087938;27;20055;-63
2023/06/17 00:56:37;;;;;;;8.98;5.80;;;;;;;;;;5089912;28;20820;-63
2023/06/17 00:59:03;;;;;;;10.13;5.55;;;;;;;;;;5071902;28;20031;-64
2023/06/17 01:01:29;;;;;;;12.95;6.28;;;;;;;;;;5088822;28;20098;-64
2023/06/17 01:03:58;;;;;;;11.10;5.72;;;;;;;;;;5090970;27;20023;-63
2023/06/17 01:06:59;;;;;;;8.88;5.82;;;;;;;;;;5079369;28;20076;-63
2023/06/17 01:09:28;;;;;;;11.20;6.30;;;;;;;;;;5004421;28;20033;-63
2023/06/17 01:11:55;;;;;;;13.30;6.40;;;;;;;;;;5067055;28;20047;-65
2023/06/17 01:14:21;;;;;;;10.70;5.75;;;;;;;;;;5070746;28;20028;-63
2023/06/17 01:16:50;;;;;;;10.30;5.85;;;;;;;;;;5066037;28;20067;-64
2023/06/17 01:19:20;;;;;;;9.25;5.93;;;;;;;;;;5072215;28;20016;-64
2023/06/17 01:21:49;;;;;;;9.25;5.72;;;;;;;;;;5065222;28;20033;-64
2023/06/17 01:24:21;;;;;;;12.07;5.93;;;;;;;;;;5071455;28;20183;-64
2023/06/17 01:26:54;;;;;;;9.63;5.90;;;;;;;;;;5072069;28;20178;-64
2023/06/17 01:29:19;;;;;;;12.65;6.10;;;;;;;;;;5072207;28;20135;-64
2023/06/17 01:31:48;;;;;;;10.10;5.78;;;;;;;;;;5073257;28;20028;-64
2023/06/17 01:34:16;;;;;;;10.55;6.40;;;;;;;;;;5090403;28;20423;-63
2023/06/17 01:36:42;;;;;;;10.93;6.35;;;;;;;;;;5071662;28;20039;-64
2023/06/17 01:39:10;;;;;;;10.27;5.75;;;;;;;;;;5076925;28;20023;-65
2023/06/17 01:41:45;;;;;;;8.90;5.68;;;;;;;;;;5086722;28;20032;-64
2023/06/17 01:44:11;;;;;;;10.02;5.75;;;;;;;;;;5087561;28;20019;-63
2023/06/17 01:46:37;;;;;;;8.65;5.60;;;;;;;;;;5085060;28;20032;-63
2023/06/17 01:49:02;;;;;;;8.40;5.40;;;;;;;;;;5072277;28;20015;-64
2023/06/17 01:51:30;;;;;;;10.27;5.97;;;;;;;;;;5091120;28;20019;-64
2023/06/17 01:53:56;;;;;;;9.90;5.57;;;;;;;;;;5085145;28;20024;-63
2023/06/17 01:56:22;;;;;;;10.40;6.00;;;;;;;;;;5076933;28;20062;-64
2023/06/17 01:58:47;;;;;;;10.93;6.07;;;;;;;;;;5088719;28;20265;-64
2023/06/17 02:01:17;;;;;;;10.03;5.60;;;;;;;;;;5077946;28;20265;-62
2023/06/17 02:03:42;;;;;;;11.43;5.75;;;;;;;;;;5069936;28;20282;-62
2023/06/17 02:06:10;;;;;;;11.73;6.22;;;;;;;;;;5082202;28;20039;-63
2023/06/17 02:08:35;;;;;;;8.85;5.05;;;;;;;;;;5067839;28;20036;-63
2023/06/17 02:11:01;;;;;;;9.85;5.40;;;;;;;;;;5085441;28;20031;-62
2023/06/17 02:13:26;;;;;;;9.57;5.97;;;;;;;;;;5091481;28;20373;-63
2023/06/17 02:15:51;;;;;;;10.27;6.53;;;;;;;;;;5065153;28;20048;-63
2023/06/17 02:18:17;;;;;;;10.10;5.93;;;;;;;;;;5068593;28;20657;-63
2023/06/17 02:20:42;;;;;;;9.07;6.07;;;;;;;;;;5049442;28;20295;-63
2023/06/17 02:23:08;;;;;;;9.25;5.13;;;;;;;;;;5067122;28;20261;-63
2023/06/17 02:25:33;;;;;;;10.93;5.28;;;;;;;;;;5053625;28;20028;-63
2023/06/17 02:27:58;;;;;;;10.30;5.57;;;;;;;;;;5050278;28;20028;-63
2023/06/17 02:30:23;;;;;;;9.80;5.13;;;;;;;;;;5070665;28;20390;-64
2023/06/17 02:32:49;;;;;;;9.15;5.53;;;;;;;;;;5066897;28;20270;-64
2023/06/17 02:35:14;;;;;;;8.97;5.00;;;;;;;;;;5072053;28;20043;-64
2023/06/17 02:37:40;;;;;;;9.35;5.20;;;;;;;;;;5070164;28;20280;-63
2023/06/17 02:40:08;;;;;;;8.43;5.03;;;;;;;;;;5051844;28;20064;-64
2023/06/17 02:42:39;;;;;;;8.85;5.70;;;;;;;;;;5075206;28;20748;-63
2023/06/17 02:45:07;;;;;;;9.82;5.40;;;;;;;;;;5067568;28;20024;-64
2023/06/17 02:47:33;;;;;;;8.02;5.20;;;;;;;;;;5054798;28;20027;-64
2023/06/17 02:49:58;;;;;;;9.07;5.63;;;;;;;;;;5065580;28;20489;-64
2023/06/17 02:52:23;;;;;;;10.32;5.57;;;;;;;;;;5054408;28;20048;-63
2023/06/17 02:54:50;;;;;;;9.47;5.17;;;;;;;;;;5049576;28;20609;-64
2023/06/17 02:57:18;;;;;;;8.45;5.53;;;;;;;;;;5073566;28;20353;-63
2023/06/17 02:59:43;;;;;;;7.70;4.78;;;;;;;;;;5073491;28;20016;-64
2023/06/17 03:02:11;;;;;;;9.85;5.32;;;;;;;;;;5054395;28;20027;-63
2023/06/17 03:04:36;;;;;;;9.23;5.90;;;;;;;;;;5051211;28;20032;-64
2023/06/17 03:07:02;;;;;;;9.50;5.82;;;;;;;;;;5051663;28;20086;-64
2023/06/17 03:09:28;;;;;;;10.10;5.70;;;;;;;;;;5070716;28;20184;-63
2023/06/17 03:11:53;;;;;;;10.40;5.38;;;;;;;;;;5069978;28;20024;-64
2023/06/17 03:14:20;;;;;;;9.63;5.70;;;;;;;;;;5070019;28;20024;-64
2023/06/17 03:16:46;;;;;;;9.45;6.15;;;;;;;;;;5073294;28;20487;-64
2023/06/17 03:19:11;;;;;;;10.10;5.93;;;;;;;;;;5074136;28;20031;-65
2023/06/17 03:21:40;;;;;;;9.27;5.65;;;;;;;;;;5072270;28;20071;-65
2023/06/17 03:24:06;;;;;;;9.15;5.70;;;;;;;;;;5050021;28;21079;-64
2023/06/17 03:26:31;;;;;;;11.13;5.70;;;;;;;;;;5073450;28;20474;-64
2023/06/17 03:28:57;;;;;;;8.73;5.47;;;;;;;;;;5063525;28;20077;-63
2023/06/17 03:31:23;;;;;;;11.05;6.05;;;;;;;;;;5072918;28;20675;-64
2023/06/17 03:33:52;;;;;;;9.50;5.45;;;;;;;;;;5045316;28;20581;-64
2023/06/17 03:36:18;;;;;;;;;;;;;;;;;;5056076;28;20019;-63
2023/06/17 03:38:44;;;;;;;9.68;5.47;;;;;;;;;;5071925;28;19920;-63
2023/06/17 03:41:10;;;;;;;9.30;5.82;;;;;;;;;;5069816;28;20028;-65
2023/06/17 03:43:35;;;;;;;9.85;5.63;;;;;;;;;;5073348;28;20039;-64
2023/06/17 03:46:03;;;;;;;11.80;7.80;;;;;;;;;;5065749;28;20033;-64
2023/06/17 03:48:28;;;;;;;9.80;5.70;;;;;;;;;;5074210;28;20361;-64
2023/06/17 03:50:53;;;;;;;10.60;5.93;;;;;;;;;;5061344;28;20028;-64
2023/06/17 03:53:23;;;;;;;11.03;5.97;;;;;;;;;;5069320;28;20289;-65
2023/06/17 03:55:48;;;;;;;8.77;5.68;;;;;;;;;;5067142;28;20277;-64
2023/06/17 03:58:16;;;;;;;9.67;5.70;;;;;;;;;;5068253;28;20035;-64
2023/06/17 04:00:42;;;;;;;9.85;5.75;;;;;;;;;;5063200;28;20016;-64
2023/06/17 04:03:10;;;;;;;9.20;5.80;;;;;;;;;;5070878;28;20118;-64
2023/06/17 04:05:35;;;;;;;10.40;6.18;;;;;;;;;;5073111;28;20036;-64
2023/06/17 04:08:02;;;;;;;9.60;5.72;;;;;;;;;;5071436;28;21043;-65
2023/06/17 04:10:28;;;;;;;9.02;5.28;;;;;;;;;;5070315;28;20143;-63
2023/06/17 04:12:53;;;;;;;9.20;5.22;;;;;;;;;;5068272;28;20751;-64
2023/06/17 04:15:18;;;;;;;10.15;5.30;;;;;;;;;;5068421;28;20087;-64
2023/06/17 04:17:43;;;;;;;10.77;5.47;;;;;;;;;;5069297;28;20020;-63
2023/06/17 04:20:12;;;;;;;10.00;5.97;;;;;;;;;;5074043;28;20266;-64
2023/06/17 04:22:39;;;;;;;10.20;5.22;;;;;;;;;;5050563;28;20270;-64
2023/06/17 04:25:07;;;;;;;11.35;5.50;;;;;;;;;;5055012;28;20089;-63
2023/06/17 04:27:32;;;;;;;9.68;5.35;;;;;;;;;;5065458;28;20035;-64
2023/06/17 04:29:57;;;;;;;8.57;5.53;;;;;;;;;;5068623;28;20171;-65
2023/06/17 04:32:26;;;;;;;8.13;4.80;;;;;;;;;;5066670;28;20049;-63
2023/06/17 04:34:51;;;;;;;8.90;5.23;;;;;;;;;;5053322;28;20468;-64
2023/06/17 04:37:17;;;;;;;10.43;5.25;;;;;;;;;;5055124;28;20054;-64
2023/06/17 04:39:42;;;;;;;12.33;5.67;;;;;;;;;;5051300;28;20036;-64
2023/06/17 04:42:10;;;;;;;7.43;4.80;;;;;;;;;;5073329;28;20251;-63
2023/06/17 04:44:37;;;;;;;7.50;4.70;;;;;;;;;;5064315;28;20035;-64
2023/06/17 04:47:03;;;;;;;8.60;4.63;;;;;;;;;;5071122;28;20027;-63
2023/06/17 04:49:30;;;;;;;9.98;5.22;;;;;;;;;;5063491;28;20028;-63
2023/06/17 04:51:56;;;;;;;8.40;5.07;;;;;;;;;;5067077;28;20050;-63
2023/06/17 04:54:24;;;;;;;8.93;5.30;;;;;;;;;;5053671;28;20024;-64
2023/06/17 04:56:51;;;;;;;8.50;4.88;;;;;;;;;;5049105;28;20028;-63
2023/06/17 04:59:18;;;;;;;8.80;4.60;;;;;;;;;;5060619;28;20040;-64
2023/06/17 05:01:43;;;;;;;8.00;4.78;;;;;;;;;;5046416;28;20016;-64
2023/06/17 05:04:08;;;;;;;8.43;5.10;;;;;;;;;;5049337;28;20602;-64
2023/06/17 05:06:33;;;;;;;8.10;4.65;;;;;;;;;;5067825;28;20178;-64
2023/06/17 05:08:59;;;;;;;8.90;5.20;;;;;;;;;;5071347;28;20139;-65
2023/06/17 05:11:24;;;;;;;8.30;4.93;;;;;;;;;;5064798;28;20399;-63
2023/06/17 05:13:51;;;;;;;9.82;4.82;;;;;;;;;;5069221;28;20051;-64
2023/06/17 05:16:17;;;;;;;10.45;5.75;;;;;;;;;;5077932;28;20055;-64
2023/06/17 05:18:42;;;;;;;8.40;5.20;;;;;;;;;;5070390;27;20494;-64
2023/06/17 05:21:07;;;;;;;7.63;4.75;;;;;;;;;;5075860;28;20504;-63
2023/06/17 05:23:33;;;;;;;8.60;5.10;;;;;;;;;;5071832;28;20469;-65
2023/06/17 05:25:58;;;;;;;8.63;4.88;;;;;;;;;;5073436;28;20038;-64
2023/06/17 05:28:24;;;;;;;11.30;4.73;;;;;;;;;;5067567;28;20027;-64
2023/06/17 05:30:51;;;;;;;8.93;5.13;;;;;;;;;;5093701;27;20944;-64
2023/06/17 05:33:17;;;;;;;7.95;4.90;;;;;;;;;;5072267;27;21003;-64
2023/06/17 05:35:42;;;;;;;9.90;5.47;;;;;;;;;;5089494;28;20031;-64
2023/06/17 05:38:07;;;;;;;8.27;5.20;;;;;;;;;;5071055;27;20786;-64
2023/06/17 05:40:36;;;;;;;7.60;4.70;;;;;;;;;;5070049;28;20055;-63
2023/06/17 05:43:01;;;;;;;9.55;5.00;;;;;;;;;;5070693;28;20019;-64
2023/06/17 05:45:31;;;;;;;8.67;5.77;;;;;;;;;;5073459;28;20162;-65
2023/06/17 05:47:57;;;;;;;7.32;4.85;;;;;;;;;;5072669;27;20454;-64
2023/06/17 05:50:22;;;;;;;8.82;5.25;;;;;;;;;;5071351;28;20039;-65
2023/06/17 05:52:48;;;;;;;8.93;5.07;;;;;;;;;;5068215;28;20131;-64
2023/06/17 05:55:16;;;;;;;8.68;5.10;;;;;;;;;;5091531;28;20547;-65
2023/06/17 05:57:41;;;;;;;8.35;5.60;;;;;;;;;;5068685;28;20023;-64
2023/06/17 06:00:08;;;;;;;8.97;5.00;;;;;;;;;;5087167;27;20031;-64
2023/06/17 06:02:33;;;;;;;8.05;4.95;;;;;;;;;;5089705;28;20076;-65
2023/06/17 06:04:58;;;;;;;8.85;4.78;;;;;;;;;;5083726;27;20478;-64
2023/06/17 06:07:28;;;;;;;9.33;5.00;;;;;;;;;;5092433;28;20021;-64
2023/06/17 06:09:56;;;;;;;8.38;4.97;;;;;;;;;;5085361;27;20272;-65
2023/06/17 06:12:21;;;;;;;8.82;5.18;;;;;;;;;;5091925;28;20122;-64
2023/06/17 06:14:47;;;;;;;8.80;5.13;;;;;;;;;;5081791;28;20886;-64
2023/06/17 06:17:12;;;;;;;8.93;4.97;;;;;;;;;;5090761;28;20557;-64
2023/06/17 06:19:37;;;;;;;9.38;5.20;;;;;;;;;;5080552;28;20397;-65
2023/06/17 06:22:02;;;;;;;8.77;5.30;;;;;;;;;;5087607;28;20028;-64
2023/06/17 06:24:28;;;;;;;9.88;5.30;;;;;;;;;;5090028;28;21187;-64
2023/06/17 06:26:53;;;;;;;7.57;4.80;;;;;;;;;;5071485;28;20414;-64
2023/06/17 06:29:18;;;;;;;7.93;5.20;;;;;;;;;;5085711;28;20360;-64
2023/06/17 06:31:44;;;;;;;8.77;5.10;;;;;;;;;;5085274;28;20868;-65
2023/06/17 06:34:09;;;;;;;8.27;4.88;;;;;;;;;;5069532;28;20265;-65
2023/06/17 06:36:34;;;;;;;8.40;4.70;;;;;;;;;;5086143;28;20036;-65
2023/06/17 06:38:59;;;;;;;8.83;4.93;;;;;;;;;;5085797;28;20051;-64
2023/06/17 06:41:25;;;;;;;8.03;4.60;;;;;;;;;;5066235;28;20300;-64
2023/06/17 06:43:50;;;;;;;7.65;4.80;;;;;;;;;;5070245;28;20775;-65
2023/06/17 06:46:18;;;;;;;8.53;4.87;;;;;;;;;;5081188;28;20046;-65
2023/06/17 06:48:43;;;;;;;8.05;4.90;;;;;;;;;;5083566;28;20273;-64
2023/06/17 06:51:08;;;;;;;8.25;5.45;;;;;;;;;;5072288;28;20048;-64
2023/06/17 06:53:34;;;;;;;8.80;4.90;;;;;;;;;;5085827;28;20409;-64
2023/06/17 06:55:59;;;;;;;7.80;5.13;;;;;;;;;;5082797;28;20297;-64
2023/06/17 06:58:24;;;;;;;7.90;4.80;;;;;;;;;;5067230;28;20811;-65
2023/06/17 07:00:49;;;;;;;8.05;4.88;;;;;;;;;;5086887;28;21087;-65
2023/06/17 07:03:15;;;;;;;9.10;5.05;;;;;;;;;;5072170;28;20500;-64
2023/06/17 07:05:40;;;;;;;9.32;5.30;;;;;;;;;;5086383;28;20026;-64
2023/06/17 07:08:06;;;;;;;8.40;5.07;;;;;;;;;;5087142;28;20024;-65
2023/06/17 07:10:31;;;;;;;9.23;4.88;;;;;;;;;;5068286;28;20628;-64
2023/06/17 07:12:56;;;;;;;8.90;5.47;;;;;;;;;;5077681;28;20057;-64
2023/06/17 07:15:22;;;;;;;7.78;5.00;;;;;;;;;;5088930;27;20047;-65
2023/06/17 07:17:47;;;;;;;8.23;5.07;;;;;;;;;;5073777;28;20877;-64
2023/06/17 07:20:12;;;;;;;8.20;4.90;;;;;;;;;;5087247;27;20437;-64
2023/06/17 07:22:37;;;;;;;7.10;4.33;;;;;;;;;;5095024;27;20270;-63
2023/06/17 07:25:05;;;;;;;7.70;4.78;;;;;;;;;;5068211;28;20277;-64
2023/06/17 07:27:30;;;;;;;9.35;5.07;;;;;;;;;;5089700;27;20028;-63
2023/06/17 07:29:58;;;;;;;7.40;5.00;;;;;;;;;;5074048;28;20019;-64
2023/06/17 07:32:25;;;;;;;9.30;5.57;;;;;;;;;;5090903;27;20288;-63
2023/06/17 07:34:51;;;;;;;8.43;5.05;;;;;;;;;;5071600;27;20561;-63
2023/06/17 07:37:16;;;;;;;8.03;4.90;;;;;;;;;;5088585;27;20030;-63
2023/06/17 07:39:44;;;;;;;7.75;4.72;;;;;;;;;;5091634;27;20252;-63
2023/06/17 07:42:09;;;;;;;7.13;4.65;;;;;;;;;;5063963;27;20020;-64
2023/06/17 07:44:34;;;;;;;8.35;4.88;;;;;;;;;;5073478;28;20063;-63
2023/06/17 07:47:00;;;;;;;7.63;4.80;;;;;;;;;;5073437;28;20038;-63
2023/06/17 07:49:29;;;;;;;8.52;4.90;;;;;;;;;;5088795;28;20103;-63
2023/06/17 07:51:55;;;;;;;8.20;5.00;;;;;;;;;;5070443;28;20572;-64
2023/06/17 07:54:20;;;;;;;9.20;5.30;;;;;;;;;;5088816;27;20051;-64
2023/06/17 07:56:47;;;;;;;9.20;5.17;;;;;;;;;;5091594;27;20278;-62
2023/06/17 07:59:13;;;;;;;8.02;5.18;;;;;;;;;;5086248;27;20271;-63
2023/06/17 08:01:39;;;;;;;8.63;5.80;;;;;;;;;;5065233;28;20557;-63
2023/06/17 08:04:04;;;;;;;9.48;6.53;;;;;;;;;;5057940;27;20313;-62
2023/06/17 08:06:31;;;;;;;7.87;5.40;;;;;;;;;;5080386;27;20651;-63
2023/06/17 08:08:57;;;;;;;8.70;5.93;;;;;;;;;;5089838;27;20284;-62
2023/06/17 08:11:24;;;;;;;8.23;5.22;;;;;;;;;;5088123;27;20468;-62
2023/06/17 08:13:49;;;;;;;7.88;5.18;;;;;;;;;;5092416;27;20020;-63
2023/06/17 08:16:17;;;;;;;8.05;4.68;;;;;;;;;;5082329;27;20086;-62
2023/06/17 08:18:42;;;;;;;8.27;5.10;;;;;;;;;;5091520;28;20037;-62
2023/06/17 08:21:07;;;;;;;8.57;5.10;;;;;;;;;;5066645;28;20028;-62
2023/06/17 08:26:17;;;;;;;9.15;4.93;;;;;;;;;;5081648;27;20038;-62
2023/06/17 08:28:42;;;;;;;7.30;4.87;;;;;;;;;;5068083;28;20027;-62
2023/06/17 08:31:07;;;;;;;8.57;4.80;;;;;;;;;;5085043;28;20286;-61
2023/06/17 08:33:33;;;;;;;8.73;4.87;;;;;;;;;;5066501;28;20326;-62
2023/06/17 08:35:58;;;;;;;9.93;4.60;;;;;;;;;;5084421;27;20032;-61
2023/06/17 08:38:25;;;;;;;8.43;5.00;;;;;;;;;;5085099;28;20074;-61
2023/06/17 08:40:52;;;;;;;8.75;5.30;;;;;;;;;;5075002;28;20261;-63
2023/06/17 08:43:18;;;;;;;8.02;5.00;;;;;;;;;;5083679;28;20051;-62
2023/06/17 08:45:44;;;;;;;8.63;5.22;;;;;;;;;;5089871;27;20123;-62
2023/06/17 08:48:10;;;;;;;8.25;5.00;;;;;;;;;;5078683;28;20035;-62
2023/06/17 08:50:36;;;;;;;11.65;5.57;;;;;;;;;;5073319;28;20019;-63
2023/06/17 08:53:02;;;;;;;7.93;4.90;;;;;;;;;;5080522;27;20024;-61
2023/06/17 08:55:30;;;;;;;8.73;4.90;;;;;;;;;;5088999;27;20798;-63
2023/06/17 08:57:55;;;;;;;7.78;5.05;;;;;;;;;;5067833;28;20038;-63
2023/06/17 09:00:20;;;;;;;9.40;5.35;;;;;;;;;;5065210;28;20020;-61
2023/06/17 09:02:46;;;;;;;10.18;5.30;;;;;;;;;;5085176;28;20209;-62
2023/06/17 09:05:14;;;;;;;9.05;5.03;;;;;;;;;;5062522;28;20035;-62
2023/06/17 09:07:40;;;;;;;8.52;4.97;;;;;;;;;;5069597;28;20607;-60
2023/06/17 09:10:07;;;;;;;8.75;5.20;;;;;;;;;;5081653;28;20126;-60
2023/06/17 09:12:36;;;;;;;7.60;5.05;;;;;;;;;;5070194;28;20040;-61
2023/06/17 09:15:01;;;;;;;;;;;;;;;;;;5055968;28;20092;-61
2023/06/17 09:17:28;;;;;;;6.90;4.53;;;;;;;;;;5077066;27;19948;-61
2023/06/17 09:19:53;;;;;;;8.20;4.72;;;;;;;;;;5084979;27;20030;-60
2023/06/17 09:22:19;;;;;;;7.18;4.50;;;;;;;;;;5061767;27;20028;-61
2023/06/17 09:24:46;;;;;;;8.55;5.57;;;;;;;;;;5066221;28;20071;-61
2023/06/17 09:27:21;;;;;;;8.10;4.78;;;;;;;;;;5082474;27;20104;-62
2023/06/17 09:29:48;;;;;;;9.50;4.65;;;;;;;;;;5064194;27;20030;-62
2023/06/17 09:32:13;;;;;;;8.43;4.53;;;;;;;;;;5064491;28;20034;-62
2023/06/17 09:34:49;;;;;;;7.63;4.97;;;;;;;;;;5082146;27;20337;-62
2023/06/17 09:37:20;;;;;;;8.85;5.32;;;;;;;;;;5076231;28;20227;-62
2023/06/17 09:39:45;;;;;;;7.47;4.55;;;;;;;;;;5061007;28;20031;-62
2023/06/17 09:42:12;;;;;;;7.38;4.53;;;;;;;;;;5077380;27;21851;-62
2023/06/17 09:44:41;;;;;;;7.03;4.43;;;;;;;;;;5073737;27;20019;-60
2023/06/17 09:47:07;;;;;;;8.73;4.97;;;;;;;;;;5084655;27;20031;-61
2023/06/17 09:49:33;;;;;;;8.35;5.57;;;;;;;;;;5086272;27;20024;-61
2023/06/17 09:52:02;;;;;;;7.10;4.63;;;;;;;;;;5086492;27;20033;-61
2023/06/17 09:54:33;;;;;;;9.07;4.70;;;;;;;;;;5066498;28;20610;-62
2023/06/17 09:57:02;;;;;;;7.25;4.50;;;;;;;;;;5062238;28;20584;-61
2023/06/17 09:59:28;;;;;;;6.72;4.05;;;;;;;;;;5082457;28;20028;-60
2023/06/17 10:01:54;;;;;;;7.35;4.60;;;;;;;;;;5068908;28;20044;-61
2023/06/17 10:04:20;;;;;;;7.43;4.43;;;;;;;;;;5066071;28;20102;-62
2023/06/17 10:06:49;;;;;;;7.32;5.00;;;;;;;;;;5072388;28;20062;-62
2023/06/17 10:09:14;;;;;;;7.30;4.70;;;;;;;;;;5087070;27;20016;-61
2023/06/17 10:11:43;;;;;;;7.43;4.57;;;;;;;;;;5072053;28;20831;-62
2023/06/17 10:14:14;;;;;;;8.75;4.38;;;;;;;;;;5068975;28;20260;-62
2023/06/17 10:16:47;;;;;;;7.75;4.38;;;;;;;;;;5069846;28;20047;-63
2023/06/17 10:19:15;;;;;;;8.20;4.90;;;;;;;;;;5067997;28;20028;-61
2023/06/17 10:21:42;;;;;;;7.63;4.90;;;;;;;;;;5082415;28;20035;-61
2023/06/17 10:24:07;;;;;;;7.72;4.70;;;;;;;;;;5066386;28;20824;-62
2023/06/17 10:26:33;;;;;;;7.90;4.72;;;;;;;;;;5083735;28;20204;-61
2023/06/17 10:28:59;;;;;;;8.30;4.73;;;;;;;;;;5071514;28;20068;-61
2023/06/17 10:31:24;;;;;;;8.40;4.57;;;;;;;;;;5077654;28;20313;-63
2023/06/17 10:33:51;;;;;;;6.93;4.38;;;;;;;;;;5084053;28;20032;-62
2023/06/17 10:36:16;;;;;;;6.85;4.10;;;;;;;;;;5067302;28;20020;-63
2023/06/17 10:38:51;;;;;;;8.73;4.28;;;;;;;;;;5067752;28;20148;-62
2023/06/17 10:41:17;;;;;;;8.40;4.18;;;;;;;;;;5072812;28;20142;-62
2023/06/17 10:43:42;;;;;;;7.63;4.80;;;;;;;;;;5069634;28;20464;-62
2023/06/17 10:46:10;;;;;;;6.47;4.17;;;;;;;;;;5085606;27;20131;-62
2023/06/17 10:48:36;;;;;;;6.78;4.47;;;;;;;;;;5091738;28;20027;-62
2023/06/17 10:51:01;;;;;;;6.78;4.10;;;;;;;;;;5073952;28;20011;-62
2023/06/17 10:53:28;;;;;;;9.13;4.10;;;;;;;;;;5090373;27;20893;-63
2023/06/17 10:55:53;;;;;;;6.70;3.90;;;;;;;;;;5088923;28;20356;-61
2023/06/17 10:58:18;;;;;;;6.33;4.03;;;;;;;;;;5087696;28;20028;-62
2023/06/17 11:00:44;;;;;;;6.30;4.10;;;;;;;;;;5085420;27;20268;-62
2023/06/17 11:03:11;;;;;;;7.17;4.07;;;;;;;;;;5071179;28;20368;-63
2023/06/17 11:05:39;;;;;;;7.82;4.30;;;;;;;;;;5072658;28;20743;-61
2023/06/17 11:08:07;;;;;;;7.57;4.50;;;;;;;;;;5083269;27;20016;-63
2023/06/17 11:10:34;;;;;;;7.03;4.18;;;;;;;;;;5087391;27;20038;-62
2023/06/17 11:12:59;;;;;;;6.40;4.30;;;;;;;;;;5074724;28;20289;-62
2023/06/17 11:15:25;;;;;;;7.50;4.67;;;;;;;;;;5071020;28;20158;-62
2023/06/17 11:18:01;;;;;;;7.07;4.50;;;;;;;;;;5074872;28;20581;-62
2023/06/17 11:20:30;;;;;;;8.88;4.70;;;;;;;;;;5079515;27;20031;-62
2023/06/17 11:22:55;;;;;;;9.00;4.68;;;;;;;;;;5065823;28;20024;-62
2023/06/17 11:25:23;;;;;;;6.55;4.20;;;;;;;;;;5087536;28;20646;-62
2023/06/17 11:27:49;;;;;;;6.78;4.45;;;;;;;;;;5089327;28;20028;-62
2023/06/17 11:30:24;;;;;;;6.72;4.03;;;;;;;;;;5068708;28;20031;-62
2023/06/17 11:32:50;;;;;;;8.55;4.38;;;;;;;;;;5092416;27;20548;-62
2023/06/17 11:35:16;;;;;;;5.97;3.92;;;;;;;;;;5075895;28;20396;-62
2023/06/17 11:37:41;;;;;;;6.97;4.10;;;;;;;;;;5072931;28;20104;-62
2023/06/17 11:40:11;;;;;;;6.85;4.28;;;;;;;;;;5094228;27;20019;-62
2023/06/17 11:42:37;;;;;;;6.50;4.00;;;;;;;;;;5081278;27;20484;-62
2023/06/17 11:45:02;;;;;;;7.38;4.40;;;;;;;;;;5088454;28;20031;-62
2023/06/17 11:47:31;;;;;;;6.13;4.07;;;;;;;;;;5064288;28;20016;-62
2023/06/17 11:49:57;;;;;;;;;;;;;;;;;;5086053;27;20019;-60
2023/06/17 11:52:22;;;;;;;7.88;3.80;;;;;;;;;;5081652;27;19922;-62
2023/06/17 11:54:51;;;;;;;6.60;4.00;;;;;;;;;;5089108;27;20091;-61
2023/06/17 11:57:24;;;;;;;7.03;4.05;;;;;;;;;;5080787;28;20730;-62
2023/06/17 11:59:50;;;;;;;6.40;3.75;;;;;;;;;;5077567;28;20028;-61
2023/06/17 12:02:18;;;;;;;6.88;3.70;;;;;;;;;;5077649;28;20046;-62
2023/06/17 12:04:47;;;;;;;8.20;3.97;;;;;;;;;;5087175;27;20027;-62
2023/06/17 12:07:14;;;;;;;6.57;4.20;;;;;;;;;;5072869;27;20090;-62
2023/06/17 12:09:54;;;;;;;6.97;4.07;;;;;;;;;;5087694;27;20541;-62
2023/06/17 12:12:25;;;;;;;7.25;4.07;;;;;;;;;;5084783;27;20023;-62
2023/06/17 12:14:55;;;;;;;6.68;4.10;;;;;;;;;;5087659;28;20049;-63
2023/06/17 12:17:22;;;;;;;6.82;4.10;;;;;;;;;;5071896;28;20077;-62
2023/06/17 12:19:48;;;;;;;7.70;4.22;;;;;;;;;;5088305;28;20086;-62
2023/06/17 12:22:14;;;;;;;6.25;3.55;;;;;;;;;;5086041;28;20683;-64
2023/06/17 12:24:39;;;;;;;7.32;3.95;;;;;;;;;;5070402;28;20047;-62
2023/06/17 12:27:07;;;;;;;7.10;4.18;;;;;;;;;;5084122;27;20027;-63
2023/06/17 12:29:32;;;;;;;6.57;4.28;;;;;;;;;;5076633;28;20408;-61
2023/06/17 12:31:57;;;;;;;8.23;4.40;;;;;;;;;;5073027;28;20019;-63
2023/06/17 12:34:22;;;;;;;7.57;4.20;;;;;;;;;;5079583;27;20267;-61
2023/06/17 12:36:48;;;;;;;6.50;4.00;;;;;;;;;;5082342;27;20063;-62
2023/06/17 12:39:18;;;;;;;7.53;4.28;;;;;;;;;;5083827;27;20609;-63
2023/06/17 12:41:44;;;;;;;6.43;4.13;;;;;;;;;;5067397;28;20559;-62
2023/06/17 12:44:11;;;;;;;7.50;4.30;;;;;;;;;;5087368;27;20024;-62
2023/06/17 12:46:37;;;;;;;8.20;4.40;;;;;;;;;;5087161;27;20138;-62
2023/06/17 12:49:04;;;;;;;8.00;4.22;;;;;;;;;;5085284;27;20122;-62
2023/06/17 12:51:31;;;;;;;7.90;4.13;;;;;;;;;;5087451;27;20023;-61
2023/06/17 12:53:59;;;;;;;8.00;4.20;;;;;;;;;;5085308;27;20066;-61
2023/06/17 12:56:27;;;;;;;9.73;4.57;;;;;;;;;;5093319;28;20098;-62
2023/06/17 12:58:55;;;;;;;7.00;4.18;;;;;;;;;;5076052;27;20020;-62
2023/06/17 13:01:20;;;;;;;6.55;3.80;;;;;;;;;;5091955;28;20103;-63
2023/06/17 13:03:45;;;;;;;7.45;3.97;;;;;;;;;;5086992;28;20015;-62
2023/06/17 13:06:13;;;;;;;7.93;4.00;;;;;;;;;;5087004;27;20023;-58
2023/06/17 13:08:39;;;;;;;7.18;4.05;;;;;;;;;;5084205;28;20015;-62
2023/06/17 13:11:06;;;;;;;7.82;4.50;;;;;;;;;;5083787;27;20015;-63
2023/06/17 13:13:33;;;;;;;7.75;4.13;;;;;;;;;;5081413;28;20023;-63
2023/06/17 13:15:58;;;;;;;7.93;4.13;;;;;;;;;;5069610;28;20047;-63
2023/06/17 13:18:24;;;;;;;6.95;4.20;;;;;;;;;;5083618;28;20047;-62
2023/06/17 13:20:51;;;;;;;6.60;4.18;;;;;;;;;;5091064;28;20041;-63
2023/06/17 13:23:19;;;;;;;7.32;4.00;;;;;;;;;;5069938;28;20034;-65
2023/06/17 13:25:44;;;;;;;6.38;4.00;;;;;;;;;;5082353;28;20046;-61
2023/06/17 13:28:10;;;;;;;7.97;4.33;;;;;;;;;;5083237;27;20042;-63
2023/06/17 13:30:37;;;;;;;8.65;3.97;;;;;;;;;;5088041;27;20028;-63
2023/06/17 13:33:02;;;;;;;7.45;4.25;;;;;;;;;;5068471;28;20019;-63
2023/06/17 13:35:27;;;;;;;6.72;4.30;;;;;;;;;;5087518;28;20588;-63
2023/06/17 13:37:54;;;;;;;6.43;4.33;;;;;;;;;;5087519;28;20425;-64
2023/06/17 13:40:20;;;;;;;7.03;4.18;;;;;;;;;;5084788;28;20054;-61
2023/06/17 13:42:45;;;;;;;7.72;4.22;;;;;;;;;;5064272;28;21048;-63
2023/06/17 13:45:11;;;;;;;7.00;4.23;;;;;;;;;;5090092;28;20355;-64
2023/06/17 13:47:36;;;;;;;6.78;4.13;;;;;;;;;;5076432;28;20055;-62
2023/06/17 13:50:02;;;;;;;6.17;4.17;;;;;;;;;;5071500;28;20679;-63
2023/06/17 13:52:27;;;;;;;6.57;3.95;;;;;;;;;;5073272;28;20280;-62
2023/06/17 13:54:52;;;;;;;7.83;4.30;;;;;;;;;;5082068;28;20031;-62
2023/06/17 13:57:18;;;;;;;6.30;3.88;;;;;;;;;;5088709;28;20027;-63
2023/06/17 13:59:43;;;;;;;6.63;4.43;;;;;;;;;;5087360;28;20012;-62
2023/06/17 14:02:08;;;;;;;7.20;4.27;;;;;;;;;;5093813;28;20270;-64
2023/06/17 14:04:33;;;;;;;6.32;4.22;;;;;;;;;;5092998;28;20261;-64
2023/06/17 14:07:02;;;;;;;6.70;4.20;;;;;;;;;;5086430;28;21681;-63
2023/06/17 14:09:27;;;;;;;6.50;4.20;;;;;;;;;;5068380;28;20117;-62
2023/06/17 14:11:55;;;;;;;6.95;4.68;;;;;;;;;;5068642;28;20476;-63
2023/06/17 14:14:20;;;;;;;6.55;4.10;;;;;;;;;;5077587;28;20019;-64
2023/06/17 14:16:46;;;;;;;6.37;4.33;;;;;;;;;;5074349;28;20081;-62
2023/06/17 14:19:11;;;;;;;6.97;4.47;;;;;;;;;;5076231;28;20026;-64
2023/06/17 14:21:36;;;;;;;6.40;4.40;;;;;;;;;;5086638;28;20035;-64
2023/06/17 14:24:02;;;;;;;9.63;4.68;;;;;;;;;;5091508;28;20470;-62
2023/06/17 14:26:31;;;;;;;8.00;4.68;;;;;;;;;;5070434;28;20292;-62
2023/06/17 14:28:58;;;;;;;6.40;4.27;;;;;;;;;;5073299;28;20024;-64
2023/06/17 14:31:24;;;;;;;8.05;4.82;;;;;;;;;;5083573;28;20418;-63
2023/06/17 14:33:50;;;;;;;8.18;4.32;;;;;;;;;;5077579;28;20098;-61
2023/06/17 14:36:16;;;;;;;6.80;4.40;;;;;;;;;;5087439;28;20059;-62
2023/06/17 14:38:43;;;;;;;7.28;4.57;;;;;;;;;;5070479;28;20099;-61
2023/06/17 14:41:08;;;;;;;9.77;4.18;;;;;;;;;;5081879;28;20069;-61